sensor_id;sensor_type;location;lat;lon;timestamp;temperature;humidity
27759;DHT22;15148;48.972;12.794;2023-01-09T00:00:44;2.80;99.90
27759;DHT22;15148;48.972;12.794;2023-01-09T00:05:46;2.90;99.90
27759;DHT22;15148;48.972;12.794;2023-01-09T00:10:49;2.90;99.90
27759;DHT22;15148;48.972;12.794;2023-01-09T00:15:51;2.90;99.90
27759;DHT22;15148;48.972;12.794;2023-01-09T00:20:52;2.80;99.90
27759;DHT22;15148;48.972;12.794;2023-01-09T00:31:08;2.90;99.90
27759;DHT22;15148;48.972;12.794;2023-01-09T00:36:10;2.80;99.90
27759;DHT22;15148;48.972;12.794;2023-01-09T00:41:18;2.90;99.90
27759;DHT22;15148;48.972;12.794;2023-01-09T00:46:25;2.90;99.90
27759;DHT22;15148;48.972;12.794;2023-01-09T00:51:28;2.90;99.90
27759;DHT22;15148;48.972;12.794;2023-01-09T00:56:30;2.90;99.90
27759;DHT22;15148;48.972;12.794;2023-01-09T01:01:34;2.90;99.90
27759;DHT22;15148;48.972;12.794;2023-01-09T01:06:36;2.90;99.90
27759;DHT22;15148;48.972;12.794;2023-01-09T01:11:56;3.00;99.90
27759;DHT22;15148;48.972;12.794;2023-01-09T01:16:58;3.00;99.90
27759;DHT22;15148;48.972;12.794;2023-01-09T01:22:01;3.00;99.90
27759;DHT22;15148;48.972;12.794;2023-01-09T01:27:03;3.00;99.90
27759;DHT22;15148;48.972;12.794;2023-01-09T01:32:04;3.00;99.90
27759;DHT22;15148;48.972;12.794;2023-01-09T01:37:06;3.00;99.90
27759;DHT22;15148;48.972;12.794;2023-01-09T01:42:11;3.10;99.90
27759;DHT22;15148;48.972;12.794;2023-01-09T01:47:13;3.10;99.90
27759;DHT22;15148;48.972;12.794;2023-01-09T01:52:16;3.00;99.90
27759;DHT22;15148;48.972;12.794;2023-01-09T01:57:19;3.10;99.90
27759;DHT22;15148;48.972;12.794;2023-01-09T02:02:24;3.00;99.90
27759;DHT22;15148;48.972;12.794;2023-01-09T02:07:26;2.90;99.90
27759;DHT22;15148;48.972;12.794;2023-01-09T02:12:28;2.90;99.90
27759;DHT22;15148;48.972;12.794;2023-01-09T02:28:00;3.00;99.90
27759;DHT22;15148;48.972;12.794;2023-01-09T02:44:27;3.00;99.90
27759;DHT22;15148;48.972;12.794;2023-01-09T02:49:32;3.10;99.90
27759;DHT22;15148;48.972;12.794;2023-01-09T02:54:49;3.10;99.90
27759;DHT22;15148;48.972;12.794;2023-01-09T03:05:08;3.10;99.90
27759;DHT22;15148;48.972;12.794;2023-01-09T03:10:23;3.10;99.90
27759;DHT22;15148;48.972;12.794;2023-01-09T03:15:30;3.10;99.90
27759;DHT22;15148;48.972;12.794;2023-01-09T03:20:33;3.10;99.90
27759;DHT22;15148;48.972;12.794;2023-01-09T03:25:35;3.10;99.90
27759;DHT22;15148;48.972;12.794;2023-01-09T03:30:36;3.10;99.90
27759;DHT22;15148;48.972;12.794;2023-01-09T03:35:38;3.20;99.90
27759;DHT22;15148;48.972;12.794;2023-01-09T03:40:41;3.20;99.90
27759;DHT22;15148;48.972;12.794;2023-01-09T03:45:44;3.30;99.90
27759;DHT22;15148;48.972;12.794;2023-01-09T03:50:53;3.30;99.90
27759;DHT22;15148;48.972;12.794;2023-01-09T03:55:56;3.30;99.90
27759;DHT22;15148;48.972;12.794;2023-01-09T04:01:00;3.30;99.90
27759;DHT22;15148;48.972;12.794;2023-01-09T04:06:03;3.40;99.90
27759;DHT22;15148;48.972;12.794;2023-01-09T04:11:05;3.40;99.90
27759;DHT22;15148;48.972;12.794;2023-01-09T04:16:06;3.40;99.90
27759;DHT22;15148;48.972;12.794;2023-01-09T04:21:08;3.40;99.90
27759;DHT22;15148;48.972;12.794;2023-01-09T04:26:10;3.50;99.90
27759;DHT22;15148;48.972;12.794;2023-01-09T04:31:12;3.50;99.90
27759;DHT22;15148;48.972;12.794;2023-01-09T04:36:14;3.50;99.90
27759;DHT22;15148;48.972;12.794;2023-01-09T04:41:16;3.50;99.90
27759;DHT22;15148;48.972;12.794;2023-01-09T04:46:37;3.60;99.90
27759;DHT22;15148;48.972;12.794;2023-01-09T04:51:39;3.60;99.90
27759;DHT22;15148;48.972;12.794;2023-01-09T04:56:41;3.60;99.90
27759;DHT22;15148;48.972;12.794;2023-01-09T05:01:43;3.60;99.90
27759;DHT22;15148;48.972;12.794;2023-01-09T05:06:45;3.60;99.90
27759;DHT22;15148;48.972;12.794;2023-01-09T05:11:47;3.60;99.90
27759;DHT22;15148;48.972;12.794;2023-01-09T05:16:49;3.70;99.90
27759;DHT22;15148;48.972;12.794;2023-01-09T05:21:51;3.70;99.90
27759;DHT22;15148;48.972;12.794;2023-01-09T05:26:53;3.70;99.90
27759;DHT22;15148;48.972;12.794;2023-01-09T05:31:55;3.70;99.90
27759;DHT22;15148;48.972;12.794;2023-01-09T05:36:56;3.70;99.90
27759;DHT22;15148;48.972;12.794;2023-01-09T05:41:58;3.70;99.90
27759;DHT22;15148;48.972;12.794;2023-01-09T05:47:00;3.70;99.90
27759;DHT22;15148;48.972;12.794;2023-01-09T05:52:03;3.80;99.90
27759;DHT22;15148;48.972;12.794;2023-01-09T05:57:05;3.80;99.90
27759;DHT22;15148;48.972;12.794;2023-01-09T06:02:07;3.80;99.90
27759;DHT22;15148;48.972;12.794;2023-01-09T06:07:09;3.80;99.90
27759;DHT22;15148;48.972;12.794;2023-01-09T06:12:10;3.80;99.90
27759;DHT22;15148;48.972;12.794;2023-01-09T06:17:12;3.90;99.90
27759;DHT22;15148;48.972;12.794;2023-01-09T06:22:14;3.80;99.90
27759;DHT22;15148;48.972;12.794;2023-01-09T06:27:16;3.90;99.90
27759;DHT22;15148;48.972;12.794;2023-01-09T06:32:17;3.90;99.90
27759;DHT22;15148;48.972;12.794;2023-01-09T06:37:19;3.90;99.90
27759;DHT22;15148;48.972;12.794;2023-01-09T06:42:21;3.90;99.90
27759;DHT22;15148;48.972;12.794;2023-01-09T06:47:23;3.90;99.90
27759;DHT22;15148;48.972;12.794;2023-01-09T06:52:24;3.90;99.90
27759;DHT22;15148;48.972;12.794;2023-01-09T06:57:26;4.00;99.90
27759;DHT22;15148;48.972;12.794;2023-01-09T07:02:28;4.00;99.90
27759;DHT22;15148;48.972;12.794;2023-01-09T07:07:30;4.00;99.90
27759;DHT22;15148;48.972;12.794;2023-01-09T07:12:32;4.00;99.90
27759;DHT22;15148;48.972;12.794;2023-01-09T07:17:34;4.00;99.90
27759;DHT22;15148;48.972;12.794;2023-01-09T07:22:35;4.00;99.90
27759;DHT22;15148;48.972;12.794;2023-01-09T07:27:38;4.00;99.90
27759;DHT22;15148;48.972;12.794;2023-01-09T07:32:39;4.00;99.90
27759;DHT22;15148;48.972;12.794;2023-01-09T07:37:41;4.00;99.90
27759;DHT22;15148;48.972;12.794;2023-01-09T07:42:43;3.90;99.90
27759;DHT22;15148;48.972;12.794;2023-01-09T07:47:45;3.90;99.90
27759;DHT22;15148;48.972;12.794;2023-01-09T07:52:47;3.90;99.90
27759;DHT22;15148;48.972;12.794;2023-01-09T07:57:49;3.80;99.90
27759;DHT22;15148;48.972;12.794;2023-01-09T08:02:52;3.80;99.90
27759;DHT22;15148;48.972;12.794;2023-01-09T08:07:54;3.80;99.90
27759;DHT22;15148;48.972;12.794;2023-01-09T08:12:56;3.80;99.90
27759;DHT22;15148;48.972;12.794;2023-01-09T08:17:58;3.80;99.90
27759;DHT22;15148;48.972;12.794;2023-01-09T08:23:00;3.80;99.90
27759;DHT22;15148;48.972;12.794;2023-01-09T08:28:01;3.80;99.90
27759;DHT22;15148;48.972;12.794;2023-01-09T08:33:03;3.90;99.90
27759;DHT22;15148;48.972;12.794;2023-01-09T08:38:05;3.90;99.90
27759;DHT22;15148;48.972;12.794;2023-01-09T08:43:08;3.90;99.90
27759;DHT22;15148;48.972;12.794;2023-01-09T08:48:28;3.90;99.90
27759;DHT22;15148;48.972;12.794;2023-01-09T08:53:30;4.00;99.90
27759;DHT22;15148;48.972;12.794;2023-01-09T08:58:32;4.00;99.90
27759;DHT22;15148;48.972;12.794;2023-01-09T09:03:33;4.10;99.90
27759;DHT22;15148;48.972;12.794;2023-01-09T09:08:35;4.20;99.90
27759;DHT22;15148;48.972;12.794;2023-01-09T09:13:37;4.30;99.90
27759;DHT22;15148;48.972;12.794;2023-01-09T09:18:39;4.30;99.90
27759;DHT22;15148;48.972;12.794;2023-01-09T09:23:40;4.30;99.90
27759;DHT22;15148;48.972;12.794;2023-01-09T09:28:42;4.30;99.90
27759;DHT22;15148;48.972;12.794;2023-01-09T09:33:44;4.40;99.90
27759;DHT22;15148;48.972;12.794;2023-01-09T09:38:47;4.40;99.90
27759;DHT22;15148;48.972;12.794;2023-01-09T09:44:10;4.50;99.90
27759;DHT22;15148;48.972;12.794;2023-01-09T09:54:57;4.60;99.90
27759;DHT22;15148;48.972;12.794;2023-01-09T10:00:02;4.60;99.90
27759;DHT22;15148;48.972;12.794;2023-01-09T10:05:20;4.60;99.90
27759;DHT22;15148;48.972;12.794;2023-01-09T10:10:41;4.50;99.90
27759;DHT22;15148;48.972;12.794;2023-01-09T10:15:53;4.60;99.90
27759;DHT22;15148;48.972;12.794;2023-01-09T10:20:59;4.60;99.90
27759;DHT22;15148;48.972;12.794;2023-01-09T10:26:15;4.60;99.90
27759;DHT22;15148;48.972;12.794;2023-01-09T10:42:07;4.70;99.90
27759;DHT22;15148;48.972;12.794;2023-01-09T10:47:17;4.70;99.90
27759;DHT22;15148;48.972;12.794;2023-01-09T10:52:25;4.70;99.90
27759;DHT22;15148;48.972;12.794;2023-01-09T10:57:41;4.80;99.90
27759;DHT22;15148;48.972;12.794;2023-01-09T11:02:44;4.80;99.90
27759;DHT22;15148;48.972;12.794;2023-01-09T11:08:00;4.90;99.90
27759;DHT22;15148;48.972;12.794;2023-01-09T11:18:22;4.90;99.90
27759;DHT22;15148;48.972;12.794;2023-01-09T11:23:30;4.90;99.90
27759;DHT22;15148;48.972;12.794;2023-01-09T11:28:32;4.90;99.90
27759;DHT22;15148;48.972;12.794;2023-01-09T11:33:38;4.90;99.90
27759;DHT22;15148;48.972;12.794;2023-01-09T11:38:55;4.90;99.90
27759;DHT22;15148;48.972;12.794;2023-01-09T11:43:58;4.90;99.90
27759;DHT22;15148;48.972;12.794;2023-01-09T11:49:03;4.90;99.90
27759;DHT22;15148;48.972;12.794;2023-01-09T11:54:24;4.90;99.90
27759;DHT22;15148;48.972;12.794;2023-01-09T11:59:28;4.90;99.90
27759;DHT22;15148;48.972;12.794;2023-01-09T12:09:54;4.90;99.90
27759;DHT22;15148;48.972;12.794;2023-01-09T12:20:56;5.00;99.90
27759;DHT22;15148;48.972;12.794;2023-01-09T12:26:11;5.00;99.90
27759;DHT22;15148;48.972;12.794;2023-01-09T12:52:23;5.00;99.90
27759;DHT22;15148;48.972;12.794;2023-01-09T12:57:30;5.10;99.90
27759;DHT22;15148;48.972;12.794;2023-01-09T13:02:41;5.00;99.90
27759;DHT22;15148;48.972;12.794;2023-01-09T13:08:05;5.00;99.90
27759;DHT22;15148;48.972;12.794;2023-01-09T13:13:16;5.00;99.90
27759;DHT22;15148;48.972;12.794;2023-01-09T13:18:38;5.00;99.90
27759;DHT22;15148;48.972;12.794;2023-01-09T13:23:47;5.00;99.90
27759;DHT22;15148;48.972;12.794;2023-01-09T13:28:52;5.00;99.90
27759;DHT22;15148;48.972;12.794;2023-01-09T13:34:00;5.00;99.90
27759;DHT22;15148;48.972;12.794;2023-01-09T13:39:05;5.10;99.90
27759;DHT22;15148;48.972;12.794;2023-01-09T13:54:59;5.00;99.90
27759;DHT22;15148;48.972;12.794;2023-01-09T14:15:51;5.10;99.90
27759;DHT22;15148;48.972;12.794;2023-01-09T14:20:59;5.00;99.90
27759;DHT22;15148;48.972;12.794;2023-01-09T14:26:02;5.00;99.90
27759;DHT22;15148;48.972;12.794;2023-01-09T14:31:05;5.00;99.90
27759;DHT22;15148;48.972;12.794;2023-01-09T14:36:18;4.90;99.90
27759;DHT22;15148;48.972;12.794;2023-01-09T14:47:11;4.90;99.90
27759;DHT22;15148;48.972;12.794;2023-01-09T14:52:22;4.90;99.90
27759;DHT22;15148;48.972;12.794;2023-01-09T14:57:30;4.90;99.90
27759;DHT22;15148;48.972;12.794;2023-01-09T15:02:34;4.90;99.90
27759;DHT22;15148;48.972;12.794;2023-01-09T15:07:44;4.90;99.90
27759;DHT22;15148;48.972;12.794;2023-01-09T15:12:51;4.90;99.90
27759;DHT22;15148;48.972;12.794;2023-01-09T15:18:06;4.90;99.90
27759;DHT22;15148;48.972;12.794;2023-01-09T15:23:20;4.90;99.90
27759;DHT22;15148;48.972;12.794;2023-01-09T15:33:28;4.80;99.90
27759;DHT22;15148;48.972;12.794;2023-01-09T15:38:31;4.80;99.90
27759;DHT22;15148;48.972;12.794;2023-01-09T15:43:33;4.70;99.90
27759;DHT22;15148;48.972;12.794;2023-01-09T15:48:37;4.70;99.90
27759;DHT22;15148;48.972;12.794;2023-01-09T15:53:40;4.70;99.90
27759;DHT22;15148;48.972;12.794;2023-01-09T15:58:44;4.60;99.90
27759;DHT22;15148;48.972;12.794;2023-01-09T16:03:49;4.60;99.90
27759;DHT22;15148;48.972;12.794;2023-01-09T16:08:53;4.60;99.90
27759;DHT22;15148;48.972;12.794;2023-01-09T16:14:12;4.60;99.90
27759;DHT22;15148;48.972;12.794;2023-01-09T16:19:50;4.50;99.90
27759;DHT22;15148;48.972;12.794;2023-01-09T16:24:54;4.50;99.90
27759;DHT22;15148;48.972;12.794;2023-01-09T16:30:07;4.40;99.90
27759;DHT22;15148;48.972;12.794;2023-01-09T16:35:17;4.30;99.90
27759;DHT22;15148;48.972;12.794;2023-01-09T16:40:24;4.20;99.90
27759;DHT22;15148;48.972;12.794;2023-01-09T16:50:32;3.90;99.90
27759;DHT22;15148;48.972;12.794;2023-01-09T16:55:34;3.80;99.90
27759;DHT22;15148;48.972;12.794;2023-01-09T17:00:38;3.70;99.90
27759;DHT22;15148;48.972;12.794;2023-01-09T17:05:39;3.70;99.90
27759;DHT22;15148;48.972;12.794;2023-01-09T17:10:41;3.70;99.90
27759;DHT22;15148;48.972;12.794;2023-01-09T17:15:44;3.70;99.90
27759;DHT22;15148;48.972;12.794;2023-01-09T17:20:51;3.70;99.90
27759;DHT22;15148;48.972;12.794;2023-01-09T17:25:55;3.70;99.90
27759;DHT22;15148;48.972;12.794;2023-01-09T17:31:17;3.80;99.90
27759;DHT22;15148;48.972;12.794;2023-01-09T17:36:30;3.80;99.90
27759;DHT22;15148;48.972;12.794;2023-01-09T17:41:32;3.80;99.90
27759;DHT22;15148;48.972;12.794;2023-01-09T17:46:36;3.90;99.90
27759;DHT22;15148;48.972;12.794;2023-01-09T17:51:39;3.90;99.90
27759;DHT22;15148;48.972;12.794;2023-01-09T17:56:43;3.90;99.90
27759;DHT22;15148;48.972;12.794;2023-01-09T18:01:45;4.00;99.90
27759;DHT22;15148;48.972;12.794;2023-01-09T18:06:47;4.00;99.90
27759;DHT22;15148;48.972;12.794;2023-01-09T18:11:50;4.00;99.90
27759;DHT22;15148;48.972;12.794;2023-01-09T18:16:51;4.00;99.90
27759;DHT22;15148;48.972;12.794;2023-01-09T18:21:53;4.00;99.90
27759;DHT22;15148;48.972;12.794;2023-01-09T18:26:55;4.00;99.90
27759;DHT22;15148;48.972;12.794;2023-01-09T18:31:57;4.00;99.90
27759;DHT22;15148;48.972;12.794;2023-01-09T18:36:58;4.00;99.90
27759;DHT22;15148;48.972;12.794;2023-01-09T18:42:00;4.00;99.90
27759;DHT22;15148;48.972;12.794;2023-01-09T18:47:02;4.10;99.90
27759;DHT22;15148;48.972;12.794;2023-01-09T18:52:04;4.10;99.90
27759;DHT22;15148;48.972;12.794;2023-01-09T18:57:08;4.10;99.90
27759;DHT22;15148;48.972;12.794;2023-01-09T19:02:28;4.10;99.90
27759;DHT22;15148;48.972;12.794;2023-01-09T19:07:30;4.20;99.90
27759;DHT22;15148;48.972;12.794;2023-01-09T19:12:32;4.20;99.90
27759;DHT22;15148;48.972;12.794;2023-01-09T19:17:33;4.20;99.90
27759;DHT22;15148;48.972;12.794;2023-01-09T19:22:35;4.20;99.90
27759;DHT22;15148;48.972;12.794;2023-01-09T19:27:37;4.20;99.90
27759;DHT22;15148;48.972;12.794;2023-01-09T19:32:39;4.20;99.90
27759;DHT22;15148;48.972;12.794;2023-01-09T19:37:41;4.20;99.90
27759;DHT22;15148;48.972;12.794;2023-01-09T19:42:43;4.20;99.90
27759;DHT22;15148;48.972;12.794;2023-01-09T19:47:45;4.20;99.90
27759;DHT22;15148;48.972;12.794;2023-01-09T19:52:48;4.20;99.90
27759;DHT22;15148;48.972;12.794;2023-01-09T19:57:51;4.20;99.90
27759;DHT22;15148;48.972;12.794;2023-01-09T20:02:53;4.20;99.90
27759;DHT22;15148;48.972;12.794;2023-01-09T20:07:55;4.20;99.90
27759;DHT22;15148;48.972;12.794;2023-01-09T20:12:58;4.20;99.90
27759;DHT22;15148;48.972;12.794;2023-01-09T20:17:59;4.20;99.90
27759;DHT22;15148;48.972;12.794;2023-01-09T20:23:02;4.20;99.90
27759;DHT22;15148;48.972;12.794;2023-01-09T20:28:04;4.10;99.90
27759;DHT22;15148;48.972;12.794;2023-01-09T20:33:05;4.20;99.90
27759;DHT22;15148;48.972;12.794;2023-01-09T20:38:07;4.20;99.90
27759;DHT22;15148;48.972;12.794;2023-01-09T20:43:11;4.20;99.90
27759;DHT22;15148;48.972;12.794;2023-01-09T20:48:13;4.10;99.90
27759;DHT22;15148;48.972;12.794;2023-01-09T20:53:15;4.20;99.90
27759;DHT22;15148;48.972;12.794;2023-01-09T20:58:17;4.20;99.90
27759;DHT22;15148;48.972;12.794;2023-01-09T21:03:18;4.10;99.90
27759;DHT22;15148;48.972;12.794;2023-01-09T21:08:20;4.10;99.90
27759;DHT22;15148;48.972;12.794;2023-01-09T21:13:23;4.10;99.90
27759;DHT22;15148;48.972;12.794;2023-01-09T21:18:24;4.10;99.90
27759;DHT22;15148;48.972;12.794;2023-01-09T21:23:26;4.10;99.90
27759;DHT22;15148;48.972;12.794;2023-01-09T21:28:28;4.00;99.90
27759;DHT22;15148;48.972;12.794;2023-01-09T21:33:32;4.10;99.90
27759;DHT22;15148;48.972;12.794;2023-01-09T21:38:34;4.00;99.90
27759;DHT22;15148;48.972;12.794;2023-01-09T21:43:36;4.00;99.90
27759;DHT22;15148;48.972;12.794;2023-01-09T21:48:56;4.00;99.90
27759;DHT22;15148;48.972;12.794;2023-01-09T21:53:58;4.00;99.90
27759;DHT22;15148;48.972;12.794;2023-01-09T21:59:00;4.00;99.90
27759;DHT22;15148;48.972;12.794;2023-01-09T22:04:02;4.00;99.90
27759;DHT22;15148;48.972;12.794;2023-01-09T22:09:04;4.00;99.90
27759;DHT22;15148;48.972;12.794;2023-01-09T22:14:08;4.00;99.90
27759;DHT22;15148;48.972;12.794;2023-01-09T22:19:12;4.00;99.90
27759;DHT22;15148;48.972;12.794;2023-01-09T22:24:15;4.00;99.90
27759;DHT22;15148;48.972;12.794;2023-01-09T22:29:18;3.90;99.90
27759;DHT22;15148;48.972;12.794;2023-01-09T22:34:19;3.90;99.90
27759;DHT22;15148;48.972;12.794;2023-01-09T22:39:21;3.90;99.90
27759;DHT22;15148;48.972;12.794;2023-01-09T22:44:23;3.90;99.90
27759;DHT22;15148;48.972;12.794;2023-01-09T22:49:25;3.90;99.90
27759;DHT22;15148;48.972;12.794;2023-01-09T22:54:33;3.90;99.90
27759;DHT22;15148;48.972;12.794;2023-01-09T22:59:35;3.90;99.90
27759;DHT22;15148;48.972;12.794;2023-01-09T23:04:37;3.90;99.90
27759;DHT22;15148;48.972;12.794;2023-01-09T23:09:39;3.90;99.90
27759;DHT22;15148;48.972;12.794;2023-01-09T23:14:41;3.90;99.90
27759;DHT22;15148;48.972;12.794;2023-01-09T23:19:42;3.90;99.90
27759;DHT22;15148;48.972;12.794;2023-01-09T23:24:44;3.80;99.90
27759;DHT22;15148;48.972;12.794;2023-01-09T23:29:46;3.80;99.90
27759;DHT22;15148;48.972;12.794;2023-01-09T23:34:48;3.80;99.90
27759;DHT22;15148;48.972;12.794;2023-01-09T23:39:50;3.90;99.90
27759;DHT22;15148;48.972;12.794;2023-01-09T23:44:52;3.90;99.90
27759;DHT22;15148;48.972;12.794;2023-01-09T23:49:53;3.90;99.90
27759;DHT22;15148;48.972;12.794;2023-01-09T23:54:55;3.90;99.90
27759;DHT22;15148;48.972;12.794;2023-01-09T23:59:58;3.90;99.90
